createdAt,value
2022-09-22T00:02:03.786Z,98678.50
2022-09-22T00:04:30.234Z,98684.25
2022-09-22T00:06:56.568Z,98674.03
2022-09-22T00:09:22.818Z,98675.50
2022-09-22T00:11:49.226Z,98682.06
2022-09-22T00:14:15.415Z,98676.16
2022-09-22T00:16:41.939Z,98677.38
2022-09-22T00:19:08.451Z,98679.22
2022-09-22T00:21:35.419Z,98679.88
2022-09-22T00:24:01.626Z,98684.59
2022-09-22T00:26:27.901Z,98674.38
2022-09-22T00:28:54.494Z,98679.94
2022-09-22T00:31:21.215Z,98691.81
2022-09-22T00:33:47.511Z,98677.06
2022-09-22T00:36:13.900Z,98687.94
2022-09-22T00:38:40.327Z,98684.88
2022-09-22T00:41:06.523Z,98688.78
2022-09-22T00:43:32.778Z,98690.03
2022-09-22T00:45:59.113Z,98683.09
2022-09-22T00:48:25.301Z,98679.19
2022-09-22T00:50:51.501Z,98680.47
2022-09-22T00:53:17.888Z,98677.38
2022-09-22T00:55:46.277Z,98675.94
2022-09-22T00:58:12.472Z,98673.72
2022-09-22T01:00:38.703Z,98672.28
2022-09-22T01:03:04.892Z,98664.72
2022-09-22T01:05:31.396Z,98665.97
2022-09-22T01:07:58.507Z,98663.72
2022-09-22T01:10:24.731Z,98657.00
2022-09-22T01:12:51.338Z,98654.75
2022-09-22T01:15:17.545Z,98661.31
2022-09-22T01:17:44.033Z,98659.88
2022-09-22T01:20:10.421Z,98656.63
2022-09-22T01:22:36.689Z,98655.44
2022-09-22T01:25:03.111Z,98648.69
2022-09-22T01:27:29.295Z,98649.91
2022-09-22T01:29:55.526Z,98645.84
2022-09-22T01:32:21.708Z,98646.28
2022-09-22T01:34:47.897Z,98651.97
2022-09-22T01:37:14.151Z,98646.28
2022-09-22T01:39:40.331Z,98645.69
2022-09-22T01:42:06.526Z,98649.34
2022-09-22T01:44:32.733Z,98639.16
2022-09-22T01:46:59.565Z,98643.03
2022-09-22T01:49:25.782Z,98644.28
2022-09-22T01:51:52.381Z,98645.50
2022-09-22T01:54:18.665Z,98643.88
2022-09-22T01:56:46.314Z,98645.09
2022-09-22T01:59:12.604Z,98635.50
2022-09-22T02:01:38.898Z,98639.38
2022-09-22T02:04:05.371Z,98642.25
2022-09-22T02:06:31.629Z,98638.19
2022-09-22T02:08:57.891Z,98639.41
2022-09-22T02:11:24.131Z,98633.47
2022-09-22T02:13:50.384Z,98631.88
2022-09-22T02:16:16.706Z,98630.22
2022-09-22T02:18:42.930Z,98634.34
2022-09-22T02:21:09.172Z,98629.19
2022-09-22T02:23:35.480Z,98623.31
2022-09-22T02:26:05.456Z,98626.13
2022-09-22T02:28:31.680Z,98628.22
2022-09-22T02:31:18.661Z,98628.41
2022-09-22T02:33:45.029Z,98626.97
2022-09-22T02:36:11.339Z,98629.03
2022-09-22T02:38:37.575Z,98631.06
2022-09-22T02:41:03.986Z,98636.38
2022-09-22T02:43:30.329Z,98626.19
2022-09-22T02:45:56.557Z,98618.41
2022-09-22T02:48:23.073Z,98619.59
2022-09-22T02:50:49.662Z,98620.66
2022-09-22T02:53:15.859Z,98621.88
2022-09-22T02:55:42.113Z,98622.28
2022-09-22T02:58:08.347Z,98617.19
2022-09-22T03:00:34.571Z,98620.03
2022-09-22T03:03:00.800Z,98619.44
2022-09-22T03:05:27.117Z,98614.34
2022-09-22T03:07:53.359Z,98614.53
2022-09-22T03:10:19.815Z,98617.38
2022-09-22T03:13:09.183Z,98608.00
2022-09-22T03:15:32.828Z,98614.53
2022-09-22T03:17:59.079Z,98611.25
2022-09-22T03:20:25.396Z,98603.50
2022-09-22T03:22:51.600Z,98604.75
2022-09-22T03:25:17.804Z,98607.00
2022-09-22T03:27:44.546Z,98612.31
2022-09-22T03:30:10.746Z,98610.84
2022-09-22T03:32:37.258Z,98602.28
2022-09-22T03:35:03.985Z,98607.00
2022-09-22T03:37:31.318Z,98601.88
2022-09-22T03:39:57.580Z,98607.38
2022-09-22T03:42:24.476Z,98603.13
2022-09-22T03:44:51.801Z,98605.16
2022-09-22T03:47:20.152Z,98601.06
2022-09-22T03:49:52.872Z,98603.91
2022-09-22T03:52:23.693Z,98601.47
2022-09-22T03:54:50.000Z,98599.03
2022-09-22T03:57:16.352Z,98601.06
2022-09-22T03:59:42.648Z,98608.41
2022-09-22T04:02:08.984Z,98595.56
2022-09-22T04:04:35.214Z,98597.59
2022-09-22T04:07:06.845Z,98596.97
2022-09-22T04:09:33.700Z,98598.22
2022-09-22T04:12:00.474Z,98602.69
2022-09-22T04:14:26.686Z,98598.63
2022-09-22T04:16:53.299Z,98597.19
2022-09-22T04:19:19.595Z,98596.56
2022-09-22T04:21:45.797Z,98594.13
2022-09-22T04:24:12.208Z,98592.50
2022-09-22T04:26:38.438Z,98589.22
2022-09-22T04:29:05.454Z,98582.47
2022-09-22T04:31:31.835Z,98583.50
2022-09-22T04:33:58.075Z,98581.06
2022-09-22T04:36:24.292Z,98578.59
2022-09-22T04:38:50.512Z,98579.81
2022-09-22T04:41:16.744Z,98577.38
2022-09-22T04:43:43.397Z,98579.41
2022-09-22T04:46:09.840Z,98582.28
2022-09-22T04:48:36.055Z,98584.50
2022-09-22T04:51:02.261Z,98586.34
2022-09-22T04:53:28.487Z,98588.38
2022-09-22T04:55:54.754Z,98587.56
2022-09-22T04:58:21.643Z,98579.78
2022-09-22T05:00:47.935Z,98575.72
2022-09-22T05:03:16.521Z,98583.69
2022-09-22T05:05:46.204Z,98589.97
2022-09-22T05:08:12.744Z,98585.91
2022-09-22T05:10:45.919Z,98591.22
2022-09-22T05:13:12.610Z,98598.53
2022-09-22T05:15:38.834Z,98596.94
2022-09-22T05:18:05.091Z,98597.94
2022-09-22T05:20:31.281Z,98598.97
2022-09-22T05:22:57.534Z,98597.31
2022-09-22T05:25:23.724Z,98596.50
2022-09-22T05:27:50.137Z,98606.91
2022-09-22T05:30:17.026Z,98599.75
2022-09-22T05:32:43.613Z,98607.34
2022-09-22T05:35:09.856Z,98605.53
2022-09-22T05:37:36.376Z,98608.78
2022-09-22T05:40:02.898Z,98615.53
2022-09-22T05:42:29.285Z,98615.38
2022-09-22T05:44:55.510Z,98606.16
2022-09-22T05:47:23.864Z,98605.78
2022-09-22T05:49:50.045Z,98600.66
2022-09-22T05:52:16.243Z,98611.25
2022-09-22T05:54:42.496Z,98600.38
2022-09-22T05:57:08.729Z,98611.94
2022-09-22T05:59:34.917Z,98614.19
2022-09-22T06:02:01.912Z,98621.41
2022-09-22T06:04:32.461Z,98625.31
2022-09-22T06:06:59.031Z,98632.47
2022-09-22T06:12:09.522Z,98628.59
2022-09-22T06:14:43.037Z,98626.75
2022-09-22T06:17:28.085Z,98638.59
2022-09-22T06:19:54.420Z,98637.53
2022-09-22T06:22:20.843Z,98634.84
2022-09-22T06:24:47.170Z,98639.91
2022-09-22T06:27:13.421Z,98636.97
2022-09-22T06:29:39.835Z,98636.91
2022-09-22T06:32:06.232Z,98636.44
2022-09-22T06:34:32.911Z,98644.63
2022-09-22T06:36:59.305Z,98641.50
2022-09-22T06:39:25.783Z,98634.66
2022-09-22T06:41:52.473Z,98644.38
2022-09-22T06:44:18.720Z,98639.16
2022-09-22T06:46:45.598Z,98643.53
2022-09-22T06:49:11.815Z,98642.81
2022-09-22T06:51:38.157Z,98646.59
2022-09-22T06:54:04.657Z,98644.78
2022-09-22T06:56:35.414Z,98649.63
2022-09-22T06:59:10.828Z,98645.09
2022-09-22T07:01:37.801Z,98648.88
2022-09-22T07:04:04.114Z,98644.81
2022-09-22T07:06:30.415Z,98650.16
2022-09-22T07:08:56.941Z,98646.09
2022-09-22T07:11:23.934Z,98646.31
2022-09-22T07:13:50.485Z,98645.75
2022-09-22T07:16:16.760Z,98642.72
2022-09-22T07:18:43.818Z,98636.97
2022-09-22T07:21:10.187Z,98636.34
2022-09-22T07:23:36.746Z,98628.97
2022-09-22T07:26:03.733Z,98635.56
2022-09-22T07:28:30.334Z,98636.00
2022-09-22T07:30:59.104Z,98635.84
2022-09-22T07:33:27.639Z,98637.31
2022-09-22T07:35:53.920Z,98633.41
2022-09-22T07:38:20.243Z,98635.69
2022-09-22T07:40:46.710Z,98627.69
2022-09-22T07:43:13.122Z,98629.97
2022-09-22T07:45:40.860Z,98630.34
2022-09-22T07:48:07.445Z,98625.31
2022-09-22T07:50:33.788Z,98624.78
2022-09-22T07:53:02.182Z,98622.09
2022-09-22T07:55:30.965Z,98622.88
2022-09-22T07:57:57.402Z,98612.13
2022-09-22T08:00:23.761Z,98615.91
2022-09-22T08:02:49.994Z,98614.06
2022-09-22T08:05:16.555Z,98615.19
2022-09-22T08:07:42.890Z,98619.28
2022-09-22T08:10:09.294Z,98619.94
2022-09-22T08:12:35.582Z,98615.41
2022-09-22T08:15:01.863Z,98617.66
2022-09-22T08:17:28.523Z,98617.47
2022-09-22T08:19:54.773Z,98618.84
2022-09-22T08:22:21.222Z,98627.47
2022-09-22T08:24:48.898Z,98622.59
2022-09-22T08:28:01.598Z,98615.31
2022-09-22T08:30:02.421Z,98591.03
2022-09-22T08:32:28.635Z,98608.50
2022-09-22T08:34:54.994Z,98604.72
2022-09-22T08:37:21.274Z,98604.97
2022-09-22T08:39:47.525Z,98607.38
2022-09-22T08:42:14.768Z,98611.69
2022-09-22T08:44:40.978Z,98606.81
2022-09-22T08:47:07.484Z,98603.59
2022-09-22T08:49:33.737Z,98599.78
2022-09-22T08:52:00.230Z,98605.50
2022-09-22T08:54:27.335Z,98600.38
2022-09-22T08:56:55.440Z,98600.41
2022-09-22T08:59:24.998Z,98601.53
2022-09-22T09:01:51.514Z,98597.50
2022-09-22T09:04:17.792Z,98590.22
2022-09-22T09:06:44.507Z,98582.94
2022-09-22T09:09:10.976Z,98576.41
2022-09-22T09:11:38.733Z,98575.03
2022-09-22T09:14:05.298Z,98580.53
2022-09-22T09:16:34.222Z,98576.66
2022-09-22T09:19:03.957Z,98571.97
2022-09-22T09:21:30.300Z,98576.75
2022-09-22T09:26:43.399Z,98577.31
2022-09-22T09:29:20.265Z,98575.91
2022-09-22T09:31:48.126Z,98576.88
2022-09-22T09:34:14.381Z,98575.47
2022-09-22T09:36:44.688Z,98580.31
2022-09-22T09:39:11.186Z,98573.47
2022-09-22T09:41:37.787Z,98569.41
2022-09-22T09:44:04.046Z,98581.06
2022-09-22T09:46:30.355Z,98580.16
2022-09-22T09:48:56.659Z,98579.41
2022-09-22T09:51:22.904Z,98576.81
2022-09-22T09:53:52.397Z,98579.94
2022-09-22T09:56:18.917Z,98588.34
2022-09-22T09:58:45.195Z,98576.72
2022-09-22T10:01:12.791Z,98566.47
2022-09-22T10:03:43.899Z,98576.66
2022-09-22T10:06:12.062Z,98572.66
2022-09-22T10:08:40.744Z,98564.53
2022-09-22T10:11:10.690Z,98566.41
2022-09-22T10:13:40.632Z,98557.47
2022-09-22T10:16:08.501Z,98565.41
2022-09-22T10:18:34.967Z,98551.22
2022-09-22T10:21:02.439Z,98557.47
2022-09-22T10:23:38.294Z,98547.25
2022-09-22T10:29:12.683Z,98541.78
2022-09-22T10:31:40.920Z,98536.91
2022-09-22T10:34:12.808Z,98539.59
2022-09-22T10:36:47.198Z,98530.50
2022-09-22T10:39:16.248Z,98540.00
2022-09-22T10:41:43.194Z,98529.47
2022-09-22T10:44:34.672Z,98523.66
2022-09-22T10:46:57.350Z,98537.75
2022-09-22T10:49:36.488Z,98521.41
2022-09-22T10:52:04.052Z,98526.66
2022-09-22T10:54:30.480Z,98526.59
2022-09-22T10:56:56.781Z,98521.84
2022-09-22T10:59:23.389Z,98521.28
2022-09-22T11:01:51.100Z,98513.50
2022-09-22T11:04:17.505Z,98513.56
2022-09-22T11:06:43.994Z,98507.94
2022-09-22T11:09:12.233Z,98513.44
2022-09-22T11:11:40.507Z,98514.06
2022-09-22T11:14:10.040Z,98509.25
2022-09-22T11:16:36.337Z,98500.16
2022-09-22T11:19:03.385Z,98500.03
2022-09-22T11:21:29.755Z,98495.22
2022-09-22T11:23:56.374Z,98501.47
2022-09-22T11:26:22.636Z,98491.88
2022-09-22T11:28:51.584Z,98499.16
2022-09-22T11:31:21.133Z,98494.91
2022-09-22T11:33:47.378Z,98499.50
2022-09-22T11:36:13.625Z,98494.44
2022-09-22T11:38:39.903Z,98490.44
2022-09-22T11:41:06.284Z,98490.19
2022-09-22T11:43:32.540Z,98494.25
2022-09-22T11:45:58.757Z,98486.75
2022-09-22T11:48:26.463Z,98483.56
2022-09-22T11:50:52.852Z,98477.38
2022-09-22T11:53:19.075Z,98476.06
2022-09-22T11:55:45.324Z,98479.28
2022-09-22T11:58:11.511Z,98469.38
2022-09-22T12:00:37.690Z,98464.81
2022-09-22T12:03:04.438Z,98465.63
2022-09-22T12:05:33.650Z,98467.25
2022-09-22T12:08:00.093Z,98464.28
2022-09-22T12:10:26.418Z,98462.19
2022-09-22T12:12:52.619Z,98463.00
2022-09-22T12:15:19.266Z,98456.53
2022-09-22T12:17:45.537Z,98464.59
2022-09-22T12:20:11.809Z,98453.88
2022-09-22T12:22:38.272Z,98444.19
2022-09-22T12:25:11.078Z,98446.63
2022-09-22T12:27:39.753Z,98441.25
2022-09-22T12:30:11.319Z,98440.19
2022-09-22T12:33:04.771Z,98449.03
2022-09-22T12:35:36.461Z,98445.53
2022-09-22T12:38:02.780Z,98436.69
2022-09-22T12:40:29.134Z,98439.38
2022-09-22T12:42:55.408Z,98444.75
2022-09-22T12:45:21.790Z,98444.50
2022-09-22T12:47:50.373Z,98442.84
2022-09-22T12:50:18.068Z,98445.81
2022-09-22T12:52:44.397Z,98437.75
2022-09-22T12:55:10.752Z,98435.06
2022-09-22T12:57:39.448Z,98449.31
2022-09-22T13:00:05.667Z,98430.78
2022-09-22T13:02:32.038Z,98432.97
2022-09-22T13:04:58.415Z,98435.41
2022-09-22T13:07:24.784Z,98436.19
2022-09-22T13:09:51.256Z,98428.38
2022-09-22T13:12:17.555Z,98428.38
2022-09-22T13:14:43.930Z,98425.69
2022-09-22T13:17:13.488Z,98433.75
2022-09-22T13:19:39.782Z,98424.88
2022-09-22T13:22:09.849Z,98422.19
2022-09-22T13:24:36.060Z,98417.91
2022-09-22T13:27:02.510Z,98420.59
2022-09-22T13:29:28.752Z,98421.63
2022-09-22T13:31:54.961Z,98421.63
2022-09-22T13:34:21.229Z,98416.00
2022-09-22T13:36:47.805Z,98414.97
2022-09-22T13:39:14.084Z,98421.19
2022-09-22T13:41:40.431Z,98420.94
2022-09-22T13:44:06.806Z,98417.97
2022-09-22T13:46:33.244Z,98415.28
2022-09-22T13:48:59.528Z,98412.59
2022-09-22T13:51:26.006Z,98402.91
2022-09-22T13:53:52.247Z,98405.59
2022-09-22T13:56:21.803Z,98398.06
2022-09-22T13:58:48.493Z,98388.59
2022-09-22T14:01:14.961Z,98390.47
2022-09-22T14:03:41.673Z,98389.34
2022-09-22T14:06:07.974Z,98374.00
2022-09-22T14:08:34.366Z,98375.59
2022-09-22T14:11:00.798Z,98364.00
2022-09-22T14:13:27.702Z,98354.28
2022-09-22T14:15:54.539Z,98350.50
2022-09-22T14:18:22.488Z,98340.78
2022-09-22T14:20:49.682Z,98341.00
2022-09-22T14:23:23.475Z,98331.00
2022-09-22T14:25:52.183Z,98332.66
2022-09-22T14:28:30.173Z,98341.25
2022-09-22T14:31:02.645Z,98340.69
2022-09-22T14:33:43.177Z,98337.94
2022-09-22T14:36:09.601Z,98343.25
2022-09-22T14:38:36.032Z,98337.34
2022-09-22T14:41:02.363Z,98335.16
2022-09-22T14:43:28.649Z,98337.28
2022-09-22T14:45:56.370Z,98336.16
2022-09-22T14:48:22.617Z,98335.63
2022-09-22T14:50:48.879Z,98333.69
2022-09-22T14:53:15.551Z,98335.53
2022-09-22T14:58:26.287Z,98326.81
2022-09-22T15:00:52.543Z,98333.16
2022-09-22T15:03:18.862Z,98317.59
2022-09-22T15:05:45.090Z,98325.06
2022-09-22T15:08:11.073Z,98317.50
2022-09-22T15:10:37.287Z,98321.97
2022-09-22T15:13:03.600Z,98316.31
2022-09-22T15:15:29.843Z,98317.63
2022-09-22T15:17:56.046Z,98316.78
2022-09-22T15:20:22.319Z,98320.16
2022-09-22T15:22:48.648Z,98322.25
2022-09-22T15:25:14.940Z,98323.59
2022-09-22T15:27:41.219Z,98317.41
2022-09-22T15:30:07.485Z,98312.56
2022-09-22T15:32:33.798Z,98313.84
2022-09-22T15:35:00.237Z,98312.00
2022-09-22T15:37:26.506Z,98306.63
2022-09-22T15:39:52.793Z,98303.16
2022-09-22T15:42:19.373Z,98297.22
2022-09-22T15:44:45.693Z,98299.13
2022-09-22T15:47:12.957Z,98304.16
2022-09-22T15:49:39.237Z,98301.94
2022-09-22T15:52:05.604Z,98292.81
2022-09-22T15:54:31.850Z,98295.44
2022-09-22T15:56:58.142Z,98292.66
2022-09-22T15:59:24.405Z,98291.56
2022-09-22T16:01:50.748Z,98296.03
2022-09-22T16:04:17.132Z,98289.81
2022-09-22T16:06:43.621Z,98293.81
2022-09-22T16:09:12.417Z,98291.44
2022-09-22T16:11:38.753Z,98287.50
2022-09-22T16:14:05.066Z,98287.31
2022-09-22T16:16:31.406Z,98289.84
2022-09-22T16:19:00.772Z,98281.59
2022-09-22T16:21:27.042Z,98281.66
2022-09-22T16:23:53.263Z,98283.34
2022-09-22T16:26:19.519Z,98282.84
2022-09-22T16:28:45.825Z,98278.03
2022-09-22T16:31:12.237Z,98282.06
2022-09-22T16:33:38.494Z,98288.81
2022-09-22T16:36:04.711Z,98279.72
2022-09-22T16:38:30.989Z,98277.59
2022-09-22T16:40:57.251Z,98279.44
2022-09-22T16:43:23.548Z,98279.25
2022-09-22T16:45:50.067Z,98281.13
2022-09-22T16:48:16.371Z,98278.44
2022-09-22T16:50:42.645Z,98273.91
2022-09-22T16:53:08.919Z,98275.75
2022-09-22T16:55:37.397Z,98273.31
2022-09-22T16:58:03.974Z,98269.81
2022-09-22T17:00:30.327Z,98271.91
2022-09-22T17:02:56.518Z,98276.47
2022-09-22T17:05:22.917Z,98270.31
2022-09-22T17:07:49.143Z,98268.13
2022-09-22T17:10:15.689Z,98273.47
2022-09-22T17:12:41.949Z,98266.78
2022-09-22T17:15:08.292Z,98266.22
2022-09-22T17:17:34.649Z,98266.47
2022-09-22T17:20:07.179Z,98265.91
2022-09-22T17:22:36.769Z,98262.66
2022-09-22T17:25:03.125Z,98265.84
2022-09-22T17:27:34.656Z,98269.59
2022-09-22T17:30:01.137Z,98268.22
2022-09-22T17:32:28.821Z,98264.97
2022-09-22T17:34:56.486Z,98267.06
2022-09-22T17:37:23.898Z,98263.84
2022-09-22T17:39:50.295Z,98263.06
2022-09-22T17:42:16.616Z,98263.31
2022-09-22T17:44:42.934Z,98264.34
2022-09-22T17:47:09.206Z,98263.78
2022-09-22T17:49:36.175Z,98264.84
2022-09-22T17:52:02.509Z,98271.25
2022-09-22T17:54:28.689Z,98264.28
2022-09-22T17:56:54.897Z,98266.41
2022-09-22T17:59:21.084Z,98271.75
2022-09-22T18:01:49.298Z,98264.78
2022-09-22T18:04:20.526Z,98265.84
2022-09-22T18:06:48.261Z,98265.84
2022-09-22T18:09:15.310Z,98252.25
2022-09-22T18:11:41.757Z,98273.34
2022-09-22T18:14:07.935Z,98268.19
2022-09-22T18:16:34.183Z,98271.94
2022-09-22T18:19:00.430Z,98268.44
2022-09-22T18:21:26.718Z,98276.72
2022-09-22T18:23:53.078Z,98275.91
2022-09-22T18:26:19.349Z,98276.72
2022-09-22T18:28:45.580Z,98278.06
2022-09-22T18:31:11.906Z,98277.50
2022-09-22T18:33:38.175Z,98272.13
2022-09-22T18:36:04.563Z,98282.84
2022-09-22T18:38:30.799Z,98282.03
2022-09-22T18:40:57.040Z,98283.88
2022-09-22T18:43:23.265Z,98279.59
2022-09-22T18:45:52.519Z,98278.78
2022-09-22T18:48:18.816Z,98283.31
2022-09-22T18:50:45.047Z,98280.09
2022-09-22T18:53:11.259Z,98276.59
2022-09-22T18:55:37.481Z,98277.41
2022-09-22T18:58:03.734Z,98283.00
2022-09-22T19:00:29.959Z,98279.53
2022-09-22T19:02:56.298Z,98286.75
2022-09-22T19:05:22.733Z,98285.94
2022-09-22T19:07:53.954Z,98289.69
2022-09-22T19:10:20.155Z,98281.91
2022-09-22T19:12:46.380Z,98285.84
2022-09-22T19:15:12.730Z,98293.31
2022-09-22T19:17:38.969Z,98291.72
2022-09-22T19:20:06.520Z,98290.91
2022-09-22T19:22:32.769Z,98291.16
2022-09-22T19:25:01.215Z,98293.00
2022-09-22T19:27:27.513Z,98283.38
2022-09-22T19:29:53.888Z,98291.66
2022-09-22T19:32:20.137Z,98284.66
2022-09-22T19:34:46.453Z,98286.78
2022-09-22T19:37:12.750Z,98285.16
2022-09-22T19:39:38.984Z,98290.75
2022-09-22T19:42:05.219Z,98283.97
2022-09-22T19:44:31.489Z,98290.41
2022-09-22T19:46:59.681Z,98283.66
2022-09-22T19:49:25.934Z,98289.00
2022-09-22T19:51:52.255Z,98295.69
2022-09-22T19:54:18.501Z,98289.50
2022-09-22T19:56:44.790Z,98294.03
2022-09-22T19:59:11.006Z,98290.84
2022-09-22T20:01:37.500Z,98288.38
2022-09-22T20:04:03.907Z,98285.94
2022-09-22T20:06:30.263Z,98294.22
2022-09-22T20:08:56.542Z,98289.13
2022-09-22T20:11:26.678Z,98288.56
2022-09-22T20:13:53.182Z,98291.47
2022-09-22T20:16:19.388Z,98284.53
2022-09-22T20:18:45.628Z,98283.69
2022-09-22T20:21:12.901Z,98280.19
2022-09-22T20:23:39.102Z,98280.44
2022-09-22T20:26:05.300Z,98282.31
2022-09-22T20:28:31.517Z,98280.94
2022-09-22T20:30:57.798Z,98283.88
2022-09-22T20:33:24.143Z,98273.97
2022-09-22T20:35:50.466Z,98274.53
2022-09-22T20:38:16.750Z,98276.41
2022-09-22T20:40:43.073Z,98285.81
2022-09-22T20:43:09.294Z,98281.28
2022-09-22T20:45:35.566Z,98288.22
2022-09-22T20:48:01.886Z,98286.38
2022-09-22T20:50:28.096Z,98273.00
2022-09-22T20:52:54.315Z,98274.84
2022-09-22T20:55:20.554Z,98275.66
2022-09-22T20:57:46.756Z,98276.50
2022-09-22T21:00:12.945Z,98275.66
2022-09-22T21:02:39.181Z,98274.84
2022-09-22T21:05:05.553Z,98273.00
2022-09-22T21:10:23.728Z,98266.81
2022-09-22T21:12:49.921Z,98270.31
2022-09-22T21:15:16.153Z,98271.38
2022-09-22T21:17:44.015Z,98264.41
2022-09-22T21:20:10.532Z,98268.16
2022-09-22T21:22:36.836Z,98265.94
2022-09-22T21:25:03.034Z,98275.59
2022-09-22T21:27:29.270Z,98265.16
2022-09-22T21:29:55.508Z,98269.69
2022-09-22T21:32:21.730Z,98267.00
2022-09-22T21:34:47.950Z,98273.16
2022-09-22T21:37:14.439Z,98269.09
2022-09-22T21:39:40.664Z,98270.19
2022-09-22T21:42:06.904Z,98276.56
2022-09-22T21:44:33.106Z,98266.94
2022-09-22T21:46:59.456Z,98268.78
2022-09-22T21:49:25.777Z,98264.50
2022-09-22T21:51:52.066Z,98259.88
2022-09-22T21:54:18.396Z,98263.78
2022-09-22T21:56:44.733Z,98262.31
2022-09-22T21:59:10.947Z,98255.50
2022-09-22T22:01:39.210Z,98259.94
2022-09-22T22:04:05.652Z,98252.91
2022-09-22T22:06:32.111Z,98253.84
2022-09-22T22:08:58.411Z,98249.50
2022-09-22T22:11:24.749Z,98244.28
2022-09-22T22:13:51.005Z,98239.06
2022-09-22T22:16:17.319Z,98248.63
2022-09-22T22:18:43.677Z,98233.53
2022-09-22T22:21:09.902Z,98235.88
2022-09-22T22:23:36.149Z,98230.44
2022-09-22T22:26:02.421Z,98227.44
2022-09-22T22:28:28.651Z,98224.69
2022-09-22T22:30:54.918Z,98226.22
2022-09-22T22:33:21.416Z,98228.78
2022-09-22T22:35:47.766Z,98222.28
2022-09-22T22:38:13.968Z,98222.78
2022-09-22T22:40:40.418Z,98217.91
2022-09-22T22:43:06.705Z,98214.91
2022-09-22T22:45:32.929Z,98223.41
2022-09-22T22:47:59.420Z,98217.72
2022-09-22T22:50:25.613Z,98214.72
2022-09-22T22:52:51.817Z,98212.75
2022-09-22T22:55:18.003Z,98212.16
2022-09-22T22:57:44.200Z,98217.16
2022-09-22T23:00:10.468Z,98212.31
2022-09-22T23:02:36.637Z,98210.13
2022-09-22T23:05:03.041Z,98214.88
2022-09-22T23:07:29.279Z,98213.44
2022-09-22T23:09:55.476Z,98215.00
2022-09-22T23:12:21.670Z,98205.59
2022-09-22T23:14:47.858Z,98206.88
2022-09-22T23:17:14.072Z,98202.00
2022-09-22T23:19:40.328Z,98207.00
2022-09-22T23:22:06.538Z,98203.97
2022-09-22T23:24:32.775Z,98198.31
2022-09-22T23:26:59.000Z,98203.88
2022-09-22T23:29:25.223Z,98201.69
2022-09-22T23:31:51.423Z,98200.28
2022-09-22T23:34:17.611Z,98201.59
2022-09-22T23:36:43.887Z,98203.66
2022-09-22T23:39:10.591Z,98195.09
2022-09-22T23:41:36.928Z,98191.06
2022-09-22T23:44:03.309Z,98190.47
2022-09-22T23:46:29.797Z,98188.25
2022-09-22T23:48:56.080Z,98192.22
2022-09-22T23:51:22.330Z,98190.81
2022-09-22T23:53:48.588Z,98186.78
2022-09-22T23:56:14.851Z,98189.09
2022-09-22T23:58:41.148Z,98187.69
